FD206 UUBW-UWSG
Flight info
| Callsign | FD206 |
|---|---|
| Flight time | 1h 45m |
| Altitude | 20000 |
| Route | K0498F230 TOGMO2B TOGMO M56 PISAR T385 SOKUR SOKUR1H |
| Aircraft | PC12/L-SDFGRWY/S |
Departure
| Time | 2026-04-27 09:58 |
|---|---|
| Airport | Zhukovsky International Airport (UUBW) |
Arrival
| Time | 2026-04-27 11:44 |
|---|---|
| Airport | Gagarin International Airport (UWSG) |
| Time | Latitude | Longitude | Altitude | Speed | Heading |
|---|---|---|---|---|---|
| 2026-04-27 09:44 | 55.57420 | 38.13945 | 392 ft | 0 kts | 2° |
| 2026-04-27 09:52 | 55.57423 | 38.13945 | 392 ft | 2 kts | 2° |
| 2026-04-27 09:52 | 55.57418 | 38.13960 | 392 ft | 6 kts | 156° |
| 2026-04-27 09:52 | 55.57335 | 38.14006 | 392 ft | 16 kts | 171° |
| 2026-04-27 09:52 | 55.57231 | 38.14096 | 391 ft | 11 kts | 110° |
| 2026-04-27 09:53 | 55.57228 | 38.14106 | 391 ft | 1 kts | 111° |
| 2026-04-27 09:53 | 55.57214 | 38.14180 | 391 ft | 12 kts | 103° |
| 2026-04-27 09:53 | 55.57186 | 38.14391 | 391 ft | 23 kts | 99° |
| 2026-04-27 09:53 | 55.57141 | 38.14717 | 389 ft | 29 kts | 114° |
| 2026-04-27 09:54 | 55.56987 | 38.14848 | 389 ft | 29 kts | 189° |
| 2026-04-27 09:54 | 55.56796 | 38.14806 | 388 ft | 20 kts | 181° |
| 2026-04-27 09:54 | 55.56720 | 38.14979 | 388 ft | 22 kts | 85° |
| 2026-04-27 09:54 | 55.56845 | 38.15127 | 387 ft | 27 kts | 354° |
| 2026-04-27 09:55 | 55.56888 | 38.15122 | 387 ft | 0 kts | 356° |
| 2026-04-27 09:55 | 55.56896 | 38.15122 | 387 ft | 5 kts | 0° |
| 2026-04-27 09:55 | 55.57061 | 38.15020 | 388 ft | 21 kts | 343° |
| 2026-04-27 09:56 | 55.57094 | 38.15235 | 388 ft | 29 kts | 113° |
| 2026-04-27 09:56 | 55.57010 | 38.15613 | 387 ft | 34 kts | 111° |
| 2026-04-27 09:56 | 55.56918 | 38.16030 | 385 ft | 30 kts | 111° |
| 2026-04-27 09:56 | 55.56902 | 38.16325 | 384 ft | 25 kts | 112° |
| 2026-04-27 09:57 | 55.56811 | 38.16173 | 384 ft | 26 kts | 266° |
| 2026-04-27 09:57 | 55.56807 | 38.15814 | 385 ft | 33 kts | 268° |
| 2026-04-27 09:57 | 55.56796 | 38.15176 | 387 ft | 75 kts | 269° |
| 2026-04-27 09:57 | 55.56805 | 38.14046 | 463 ft | 104 kts | 270° |
| 2026-04-27 09:58 | 55.56832 | 38.12635 | 509 ft | 121 kts | 270° |
| 2026-04-27 09:58 | 55.56870 | 38.11136 | 662 ft | 124 kts | 270° |
| 2026-04-27 09:58 | 55.56999 | 38.09680 | 1086 ft | 117 kts | 296° |
| 2026-04-27 09:58 | 55.57631 | 38.08800 | 1446 ft | 109 kts | 296° |
| 2026-04-27 09:59 | 55.57508 | 38.07736 | 1886 ft | 99 kts | 232° |
| 2026-04-27 09:59 | 55.57047 | 38.06833 | 2198 ft | 102 kts | 238° |
| 2026-04-27 09:59 | 55.56676 | 38.05738 | 2584 ft | 104 kts | 251° |
| 2026-04-27 09:59 | 55.56360 | 38.04641 | 3381 ft | 100 kts | 257° |
| 2026-04-27 10:00 | 55.56067 | 38.03521 | 4064 ft | 103 kts | 261° |
| 2026-04-27 10:00 | 55.55775 | 38.02355 | 4748 ft | 107 kts | 262° |
| 2026-04-27 10:00 | 55.55466 | 38.01110 | 5369 ft | 113 kts | 263° |
| 2026-04-27 10:00 | 55.55148 | 37.99803 | 5989 ft | 118 kts | 262° |
| 2026-04-27 10:01 | 55.54818 | 37.98447 | 6609 ft | 122 kts | 261° |
| 2026-04-27 10:01 | 55.54416 | 37.97092 | 7296 ft | 130 kts | 250° |
| 2026-04-27 10:01 | 55.53786 | 37.95870 | 8000 ft | 140 kts | 237° |
| 2026-04-27 10:01 | 55.52922 | 37.94913 | 8697 ft | 155 kts | 219° |
| 2026-04-27 10:02 | 55.51837 | 37.94405 | 9386 ft | 168 kts | 202° |
| 2026-04-27 10:02 | 55.50678 | 37.94137 | 10029 ft | 168 kts | 202° |
| 2026-04-27 10:02 | 55.49522 | 37.93844 | 10690 ft | 168 kts | 201° |
| 2026-04-27 10:02 | 55.48340 | 37.93640 | 11371 ft | 172 kts | 197° |
| 2026-04-27 10:03 | 55.47139 | 37.93539 | 12051 ft | 174 kts | 194° |
| 2026-04-27 10:03 | 55.45929 | 37.93460 | 12714 ft | 175 kts | 194° |
| 2026-04-27 10:03 | 55.44711 | 37.93382 | 13357 ft | 176 kts | 194° |
| 2026-04-27 10:03 | 55.43482 | 37.93298 | 13932 ft | 178 kts | 194° |
| 2026-04-27 10:04 | 55.42233 | 37.93214 | 14509 ft | 181 kts | 193° |
| 2026-04-27 10:04 | 55.40970 | 37.93130 | 15092 ft | 183 kts | 193° |
| 2026-04-27 10:04 | 55.39689 | 37.93045 | 15676 ft | 185 kts | 193° |
| 2026-04-27 10:04 | 55.38392 | 37.92959 | 16263 ft | 188 kts | 192° |
| 2026-04-27 10:05 | 55.37076 | 37.92870 | 16854 ft | 190 kts | 192° |
| 2026-04-27 10:05 | 55.35743 | 37.92782 | 17444 ft | 193 kts | 191° |
| 2026-04-27 10:05 | 55.34393 | 37.92692 | 17986 ft | 195 kts | 191° |
| 2026-04-27 10:05 | 55.33006 | 37.92597 | 18364 ft | 209 kts | 190° |
| 2026-04-27 10:06 | 55.31464 | 37.92480 | 18454 ft | 234 kts | 189° |
| 2026-04-27 10:06 | 55.29761 | 37.92367 | 18501 ft | 254 kts | 188° |
| 2026-04-27 10:06 | 55.27963 | 37.92258 | 18531 ft | 267 kts | 188° |
| 2026-04-27 10:06 | 55.26079 | 37.92142 | 18548 ft | 274 kts | 188° |
| 2026-04-27 10:07 | 55.24163 | 37.92016 | 18568 ft | 278 kts | 188° |
| 2026-04-27 10:07 | 55.22222 | 37.91884 | 18585 ft | 280 kts | 187° |
| 2026-04-27 10:07 | 55.20274 | 37.91756 | 18597 ft | 280 kts | 187° |
| 2026-04-27 10:07 | 55.18326 | 37.91632 | 18598 ft | 280 kts | 187° |
| 2026-04-27 10:08 | 55.16378 | 37.91503 | 18601 ft | 281 kts | 187° |
| 2026-04-27 10:08 | 55.14421 | 37.91373 | 18613 ft | 281 kts | 187° |
| 2026-04-27 10:08 | 55.12470 | 37.91243 | 18615 ft | 281 kts | 187° |
| 2026-04-27 10:08 | 55.10516 | 37.91108 | 18626 ft | 280 kts | 189° |
| 2026-04-27 10:09 | 55.08593 | 37.90724 | 18639 ft | 278 kts | 193° |
| 2026-04-27 10:09 | 55.06696 | 37.90289 | 18657 ft | 278 kts | 193° |
| 2026-04-27 10:09 | 55.04776 | 37.89865 | 18686 ft | 279 kts | 192° |
| 2026-04-27 10:09 | 55.02849 | 37.89450 | 18692 ft | 279 kts | 193° |
| 2026-04-27 10:10 | 55.00917 | 37.89119 | 18710 ft | 281 kts | 186° |
| 2026-04-27 10:10 | 54.98952 | 37.89517 | 18699 ft | 288 kts | 171° |
| 2026-04-27 10:10 | 54.97027 | 37.90546 | 18697 ft | 289 kts | 166° |
| 2026-04-27 10:10 | 54.95109 | 37.91604 | 18676 ft | 290 kts | 167° |
| 2026-04-27 10:11 | 54.93188 | 37.92649 | 18673 ft | 289 kts | 166° |
| 2026-04-27 10:11 | 54.91272 | 37.93690 | 18671 ft | 289 kts | 167° |
| 2026-04-27 10:11 | 54.89350 | 37.94738 | 18674 ft | 290 kts | 167° |
| 2026-04-27 10:11 | 54.87423 | 37.95790 | 18697 ft | 290 kts | 166° |
| 2026-04-27 10:12 | 54.85498 | 37.96837 | 18694 ft | 289 kts | 167° |
| 2026-04-27 10:12 | 54.83580 | 37.97877 | 18693 ft | 288 kts | 166° |
| 2026-04-27 10:12 | 54.81666 | 37.98889 | 18693 ft | 287 kts | 167° |
| 2026-04-27 10:12 | 54.79781 | 37.99872 | 18705 ft | 286 kts | 166° |
| 2026-04-27 10:13 | 54.77849 | 38.00887 | 18711 ft | 286 kts | 168° |
| 2026-04-27 10:13 | 54.75964 | 38.01882 | 18715 ft | 288 kts | 167° |
| 2026-04-27 10:13 | 54.74044 | 38.02894 | 18719 ft | 289 kts | 167° |
| 2026-04-27 10:13 | 54.72125 | 38.03902 | 18720 ft | 288 kts | 166° |
| 2026-04-27 10:14 | 54.70206 | 38.04910 | 18743 ft | 288 kts | 167° |
| 2026-04-27 10:14 | 54.68289 | 38.05915 | 18744 ft | 288 kts | 168° |
| 2026-04-27 10:14 | 54.66367 | 38.06928 | 18745 ft | 290 kts | 167° |
| 2026-04-27 10:14 | 54.64440 | 38.07966 | 18757 ft | 290 kts | 167° |
| 2026-04-27 10:15 | 54.62509 | 38.09003 | 18758 ft | 291 kts | 167° |
| 2026-04-27 10:15 | 54.60583 | 38.10031 | 18763 ft | 289 kts | 166° |
| 2026-04-27 10:15 | 54.58656 | 38.11055 | 18765 ft | 289 kts | 166° |
| 2026-04-27 10:15 | 54.56739 | 38.12076 | 18772 ft | 288 kts | 166° |
| 2026-04-27 10:16 | 54.54826 | 38.13093 | 18772 ft | 288 kts | 168° |
| 2026-04-27 10:16 | 54.52919 | 38.14112 | 18775 ft | 287 kts | 168° |
| 2026-04-27 10:16 | 54.51018 | 38.15122 | 18782 ft | 285 kts | 166° |
| 2026-04-27 10:16 | 54.49132 | 38.16123 | 18784 ft | 283 kts | 167° |
| 2026-04-27 10:17 | 54.47251 | 38.17124 | 18792 ft | 283 kts | 167° |
| 2026-04-27 10:17 | 54.45369 | 38.18125 | 18798 ft | 284 kts | 167° |
| 2026-04-27 10:17 | 54.43489 | 38.19128 | 18799 ft | 282 kts | 166° |
| 2026-04-27 10:17 | 54.41610 | 38.20122 | 18797 ft | 283 kts | 168° |
| 2026-04-27 10:18 | 54.39747 | 38.21262 | 18796 ft | 288 kts | 159° |
| 2026-04-27 10:18 | 54.38067 | 38.23145 | 18808 ft | 291 kts | 144° |
| 2026-04-27 10:18 | 54.36686 | 38.25708 | 18805 ft | 296 kts | 128° |
| 2026-04-27 10:18 | 54.35985 | 38.27726 | 18803 ft | 298 kts | 117° |
| 2026-04-27 10:19 | 54.35218 | 38.32223 | 18790 ft | 296 kts | 96° |
| 2026-04-27 10:19 | 54.35229 | 38.35729 | 18787 ft | 294 kts | 82° |
| 2026-04-27 10:19 | 54.35368 | 38.38038 | 18789 ft | 294 kts | 82° |
| 2026-04-27 10:19 | 54.35567 | 38.41535 | 18798 ft | 295 kts | 83° |
| 2026-04-27 10:20 | 54.35821 | 38.46209 | 18799 ft | 293 kts | 82° |
| 2026-04-27 10:20 | 54.35950 | 38.48512 | 18801 ft | 293 kts | 82° |
| 2026-04-27 10:20 | 54.36148 | 38.52011 | 18802 ft | 295 kts | 83° |
| 2026-04-27 10:20 | 54.36341 | 38.55514 | 18805 ft | 295 kts | 83° |
| 2026-04-27 10:21 | 54.36531 | 38.59009 | 18810 ft | 294 kts | 83° |
| 2026-04-27 10:21 | 54.36723 | 38.62511 | 18809 ft | 296 kts | 82° |
| 2026-04-27 10:21 | 54.36914 | 38.66019 | 18816 ft | 295 kts | 83° |
| 2026-04-27 10:21 | 54.37102 | 38.69513 | 18834 ft | 294 kts | 81° |
| 2026-04-27 10:22 | 54.37289 | 38.73006 | 18835 ft | 295 kts | 82° |
| 2026-04-27 10:22 | 54.37477 | 38.76507 | 18836 ft | 295 kts | 83° |
| 2026-04-27 10:22 | 54.37663 | 38.80011 | 18842 ft | 293 kts | 83° |
| 2026-04-27 10:22 | 54.37846 | 38.83501 | 18846 ft | 294 kts | 82° |
| 2026-04-27 10:23 | 54.38032 | 38.87009 | 18857 ft | 295 kts | 83° |
| 2026-04-27 10:23 | 54.38212 | 38.90465 | 18879 ft | 295 kts | 82° |
| 2026-04-27 10:23 | 54.38393 | 38.93972 | 18880 ft | 294 kts | 82° |
| 2026-04-27 10:23 | 54.38575 | 38.97470 | 18879 ft | 296 kts | 82° |
| 2026-04-27 10:24 | 54.38709 | 39.00986 | 18888 ft | 296 kts | 89° |
| 2026-04-27 10:24 | 54.38352 | 39.04458 | 18877 ft | 296 kts | 107° |
| 2026-04-27 10:24 | 54.37593 | 39.07750 | 18879 ft | 297 kts | 113° |
| 2026-04-27 10:24 | 54.36798 | 39.11025 | 18875 ft | 299 kts | 112° |
| 2026-04-27 10:25 | 54.36012 | 39.14312 | 18883 ft | 298 kts | 112° |
| 2026-04-27 10:25 | 54.35230 | 39.17586 | 18891 ft | 296 kts | 112° |
| 2026-04-27 10:25 | 54.34442 | 39.20863 | 18900 ft | 297 kts | 112° |
| 2026-04-27 10:25 | 54.33650 | 39.24149 | 18907 ft | 298 kts | 113° |
| 2026-04-27 10:26 | 54.32858 | 39.27434 | 18903 ft | 298 kts | 113° |
| 2026-04-27 10:26 | 54.32068 | 39.30700 | 18908 ft | 297 kts | 113° |
| 2026-04-27 10:26 | 54.31275 | 39.33970 | 18909 ft | 297 kts | 113° |
| 2026-04-27 10:26 | 54.30480 | 39.37244 | 18905 ft | 298 kts | 113° |
| 2026-04-27 10:27 | 54.29693 | 39.40480 | 18927 ft | 298 kts | 113° |
| 2026-04-27 10:27 | 54.28898 | 39.43747 | 18931 ft | 296 kts | 113° |
| 2026-04-27 10:27 | 54.28104 | 39.47004 | 18932 ft | 297 kts | 113° |
| 2026-04-27 10:27 | 54.27309 | 39.50260 | 18932 ft | 297 kts | 113° |
| 2026-04-27 10:28 | 54.26509 | 39.53531 | 18931 ft | 297 kts | 113° |
| 2026-04-27 10:28 | 54.25710 | 39.56793 | 18937 ft | 296 kts | 113° |
| 2026-04-27 10:28 | 54.24915 | 39.60036 | 18948 ft | 296 kts | 113° |
| 2026-04-27 10:28 | 54.24116 | 39.63288 | 18940 ft | 297 kts | 113° |
| 2026-04-27 10:29 | 54.23313 | 39.66552 | 18944 ft | 297 kts | 113° |
| 2026-04-27 10:29 | 54.22511 | 39.69808 | 18946 ft | 297 kts | 113° |
| 2026-04-27 10:29 | 54.21710 | 39.73054 | 18947 ft | 297 kts | 113° |
| 2026-04-27 10:29 | 54.20908 | 39.76298 | 18953 ft | 297 kts | 113° |
| 2026-04-27 10:30 | 54.20102 | 39.79558 | 18965 ft | 298 kts | 113° |
| 2026-04-27 10:30 | 54.19293 | 39.82819 | 18969 ft | 297 kts | 113° |
| 2026-04-27 10:30 | 54.18490 | 39.86056 | 18970 ft | 296 kts | 113° |
| 2026-04-27 10:30 | 54.17684 | 39.89299 | 18967 ft | 297 kts | 113° |
| 2026-04-27 10:31 | 54.16876 | 39.92546 | 18972 ft | 297 kts | 113° |
| 2026-04-27 10:31 | 54.16066 | 39.95793 | 18973 ft | 297 kts | 113° |
| 2026-04-27 10:31 | 54.15260 | 39.99023 | 18974 ft | 296 kts | 113° |
| 2026-04-27 10:31 | 54.14461 | 40.02218 | 18973 ft | 296 kts | 114° |
| 2026-04-27 10:32 | 54.13650 | 40.05457 | 18976 ft | 298 kts | 114° |
| 2026-04-27 10:32 | 54.12838 | 40.08693 | 18990 ft | 297 kts | 114° |
| 2026-04-27 10:32 | 54.12028 | 40.11920 | 18990 ft | 295 kts | 114° |
| 2026-04-27 10:32 | 54.11363 | 40.15230 | 18991 ft | 295 kts | 107° |
| 2026-04-27 10:33 | 54.10795 | 40.18605 | 19000 ft | 297 kts | 107° |
| 2026-04-27 10:33 | 54.10210 | 40.21980 | 19003 ft | 297 kts | 107° |
| 2026-04-27 10:33 | 54.09624 | 40.25340 | 19007 ft | 296 kts | 107° |
| 2026-04-27 10:33 | 54.09042 | 40.28698 | 19011 ft | 296 kts | 107° |
| 2026-04-27 10:34 | 54.08458 | 40.32071 | 19012 ft | 297 kts | 107° |
| 2026-04-27 10:34 | 54.07872 | 40.35439 | 19015 ft | 297 kts | 107° |
| 2026-04-27 10:34 | 54.07285 | 40.38804 | 19026 ft | 295 kts | 107° |
| 2026-04-27 10:34 | 54.06699 | 40.42161 | 19033 ft | 296 kts | 107° |
| 2026-04-27 10:35 | 54.06110 | 40.45529 | 19049 ft | 297 kts | 107° |
| 2026-04-27 10:35 | 54.05519 | 40.48895 | 19064 ft | 296 kts | 107° |
| 2026-04-27 10:35 | 54.04929 | 40.52255 | 19062 ft | 296 kts | 107° |
| 2026-04-27 10:35 | 54.04339 | 40.55609 | 19065 ft | 296 kts | 107° |
| 2026-04-27 10:36 | 54.03746 | 40.58976 | 19079 ft | 297 kts | 107° |
| 2026-04-27 10:36 | 54.03151 | 40.62341 | 19079 ft | 296 kts | 107° |
| 2026-04-27 10:36 | 54.02558 | 40.65696 | 19082 ft | 296 kts | 108° |
| 2026-04-27 10:36 | 54.01963 | 40.69051 | 19072 ft | 297 kts | 108° |
| 2026-04-27 10:37 | 54.01367 | 40.72408 | 19075 ft | 296 kts | 108° |
| 2026-04-27 10:37 | 54.00779 | 40.75708 | 19075 ft | 295 kts | 108° |
| 2026-04-27 10:37 | 54.00187 | 40.79038 | 19078 ft | 295 kts | 108° |
| 2026-04-27 10:37 | 53.99589 | 40.82385 | 19086 ft | 295 kts | 108° |
| 2026-04-27 10:38 | 53.98990 | 40.85725 | 19092 ft | 295 kts | 109° |
| 2026-04-27 10:38 | 53.98394 | 40.89057 | 19091 ft | 295 kts | 108° |
| 2026-04-27 10:38 | 53.97796 | 40.92387 | 19098 ft | 295 kts | 108° |
| 2026-04-27 10:38 | 53.97196 | 40.95717 | 19094 ft | 295 kts | 109° |
| 2026-04-27 10:39 | 53.96596 | 40.99049 | 19102 ft | 295 kts | 108° |
| 2026-04-27 10:39 | 53.95995 | 41.02382 | 19114 ft | 294 kts | 108° |
| 2026-04-27 10:39 | 53.95436 | 41.05676 | 19114 ft | 294 kts | 106° |
| 2026-04-27 10:39 | 53.94893 | 41.09027 | 19114 ft | 294 kts | 108° |
| 2026-04-27 10:40 | 53.94111 | 41.12226 | 19113 ft | 293 kts | 119° |
| 2026-04-27 10:40 | 53.93142 | 41.15258 | 19122 ft | 291 kts | 121° |
| 2026-04-27 10:40 | 53.92181 | 41.18294 | 19128 ft | 292 kts | 119° |
| 2026-04-27 10:40 | 53.91328 | 41.21425 | 19125 ft | 293 kts | 116° |
| 2026-04-27 10:41 | 53.90514 | 41.24546 | 19049 ft | 287 kts | 117° |
| 2026-04-27 10:41 | 53.89665 | 41.27630 | 19071 ft | 288 kts | 118° |
| 2026-04-27 10:41 | 53.88828 | 41.30610 | 19465 ft | 275 kts | 118° |
| 2026-04-27 10:41 | 53.88005 | 41.33574 | 19519 ft | 282 kts | 118° |
| 2026-04-27 10:42 | 53.87163 | 41.36618 | 19519 ft | 287 kts | 118° |
| 2026-04-27 10:42 | 53.86312 | 41.39692 | 19526 ft | 289 kts | 117° |
| 2026-04-27 10:42 | 53.85454 | 41.42784 | 19530 ft | 290 kts | 117° |
| 2026-04-27 10:42 | 53.84593 | 41.45874 | 19526 ft | 291 kts | 118° |
| 2026-04-27 10:43 | 53.83728 | 41.48979 | 19535 ft | 292 kts | 118° |
| 2026-04-27 10:43 | 53.82862 | 41.52086 | 19533 ft | 292 kts | 118° |
| 2026-04-27 10:43 | 53.81997 | 41.55188 | 19530 ft | 291 kts | 117° |
| 2026-04-27 10:43 | 53.81141 | 41.58248 | 19534 ft | 291 kts | 117° |
| 2026-04-27 10:44 | 53.80272 | 41.61346 | 19546 ft | 292 kts | 117° |
| 2026-04-27 10:44 | 53.79402 | 41.64449 | 19548 ft | 291 kts | 117° |
| 2026-04-27 10:44 | 53.78535 | 41.67543 | 19550 ft | 290 kts | 117° |
| 2026-04-27 10:44 | 53.77670 | 41.70619 | 19557 ft | 290 kts | 119° |
| 2026-04-27 10:45 | 53.76805 | 41.73692 | 19559 ft | 290 kts | 119° |
| 2026-04-27 10:45 | 53.75935 | 41.76772 | 19569 ft | 291 kts | 119° |
| 2026-04-27 10:45 | 53.75066 | 41.79846 | 19580 ft | 290 kts | 118° |
| 2026-04-27 10:45 | 53.74198 | 41.82921 | 19586 ft | 290 kts | 118° |
| 2026-04-27 10:46 | 53.73330 | 41.85996 | 19593 ft | 290 kts | 119° |
| 2026-04-27 10:46 | 53.72457 | 41.89077 | 19597 ft | 290 kts | 119° |
| 2026-04-27 10:46 | 53.71582 | 41.92153 | 19606 ft | 290 kts | 119° |
| 2026-04-27 10:46 | 53.70711 | 41.95220 | 19624 ft | 290 kts | 118° |
| 2026-04-27 10:47 | 53.69840 | 41.98287 | 19632 ft | 290 kts | 119° |
| 2026-04-27 10:47 | 53.68978 | 42.01310 | 19636 ft | 290 kts | 119° |
| 2026-04-27 10:47 | 53.68103 | 42.04378 | 19637 ft | 290 kts | 119° |
| 2026-04-27 10:47 | 53.67227 | 42.07442 | 19640 ft | 290 kts | 119° |
| 2026-04-27 10:48 | 53.66354 | 42.10498 | 19655 ft | 290 kts | 120° |
| 2026-04-27 10:48 | 53.65480 | 42.13555 | 19662 ft | 289 kts | 120° |
| 2026-04-27 10:48 | 53.64606 | 42.16605 | 19667 ft | 288 kts | 119° |
| 2026-04-27 10:48 | 53.63733 | 42.19638 | 19676 ft | 288 kts | 119° |
| 2026-04-27 10:49 | 53.62861 | 42.22669 | 19684 ft | 287 kts | 119° |
| 2026-04-27 10:49 | 53.61989 | 42.25701 | 19688 ft | 287 kts | 120° |
| 2026-04-27 10:49 | 53.61116 | 42.28730 | 19694 ft | 288 kts | 120° |
| 2026-04-27 10:49 | 53.60241 | 42.31760 | 19712 ft | 288 kts | 120° |
| 2026-04-27 10:50 | 53.59366 | 42.34788 | 19719 ft | 287 kts | 119° |
| 2026-04-27 10:50 | 53.58493 | 42.37810 | 19726 ft | 287 kts | 119° |
| 2026-04-27 10:50 | 53.57616 | 42.40833 | 19733 ft | 287 kts | 120° |
| 2026-04-27 10:50 | 53.56739 | 42.43858 | 19739 ft | 287 kts | 120° |
| 2026-04-27 10:51 | 53.55862 | 42.46879 | 19742 ft | 287 kts | 119° |
| 2026-04-27 10:51 | 53.54998 | 42.49848 | 19751 ft | 287 kts | 120° |
| 2026-04-27 10:51 | 53.54120 | 42.52867 | 19756 ft | 287 kts | 120° |
| 2026-04-27 10:51 | 53.53239 | 42.55884 | 19759 ft | 287 kts | 120° |
| 2026-04-27 10:52 | 53.52359 | 42.58896 | 19752 ft | 286 kts | 120° |
| 2026-04-27 10:52 | 53.51484 | 42.61893 | 19758 ft | 285 kts | 120° |
| 2026-04-27 10:52 | 53.50610 | 42.64881 | 19764 ft | 284 kts | 121° |
| 2026-04-27 10:52 | 53.49736 | 42.67862 | 19777 ft | 285 kts | 121° |
| 2026-04-27 10:53 | 53.48860 | 42.70845 | 19785 ft | 284 kts | 121° |
| 2026-04-27 10:53 | 53.47111 | 42.76796 | 19795 ft | 284 kts | 121° |
| 2026-04-27 10:53 | 53.46235 | 42.79767 | 19802 ft | 284 kts | 121° |
| 2026-04-27 10:54 | 53.45359 | 42.82739 | 19816 ft | 284 kts | 120° |
| 2026-04-27 10:54 | 53.44482 | 42.85714 | 19833 ft | 284 kts | 121° |
| 2026-04-27 10:54 | 53.43604 | 42.88684 | 19836 ft | 284 kts | 120° |
| 2026-04-27 10:54 | 53.42726 | 42.91648 | 19843 ft | 284 kts | 122° |
| 2026-04-27 10:55 | 53.41856 | 42.94580 | 19848 ft | 285 kts | 122° |
| 2026-04-27 10:55 | 53.40976 | 42.97548 | 19859 ft | 284 kts | 121° |
| 2026-04-27 10:55 | 53.40096 | 43.00512 | 19869 ft | 284 kts | 121° |
| 2026-04-27 10:55 | 53.39215 | 43.03473 | 19873 ft | 283 kts | 120° |
| 2026-04-27 10:56 | 53.38335 | 43.06426 | 19876 ft | 284 kts | 122° |
| 2026-04-27 10:56 | 53.37452 | 43.09383 | 19891 ft | 283 kts | 121° |
| 2026-04-27 10:56 | 53.36572 | 43.12331 | 19898 ft | 283 kts | 121° |
| 2026-04-27 10:56 | 53.35695 | 43.15271 | 19911 ft | 283 kts | 121° |
| 2026-04-27 10:57 | 53.34814 | 43.18214 | 19917 ft | 283 kts | 122° |
| 2026-04-27 10:57 | 53.33931 | 43.21155 | 19935 ft | 283 kts | 120° |
| 2026-04-27 10:57 | 53.33049 | 43.24096 | 19948 ft | 283 kts | 121° |
| 2026-04-27 10:57 | 53.32166 | 43.27034 | 19950 ft | 282 kts | 121° |
| 2026-04-27 10:58 | 53.31283 | 43.29972 | 19956 ft | 282 kts | 121° |
| 2026-04-27 10:58 | 53.30397 | 43.32910 | 19963 ft | 283 kts | 122° |
| 2026-04-27 10:58 | 53.29511 | 43.35850 | 19966 ft | 283 kts | 121° |
| 2026-04-27 10:58 | 53.28625 | 43.38788 | 19978 ft | 283 kts | 121° |
| 2026-04-27 10:59 | 53.27751 | 43.41678 | 19990 ft | 283 kts | 121° |
| 2026-04-27 10:59 | 53.26864 | 43.44608 | 19995 ft | 283 kts | 122° |
| 2026-04-27 10:59 | 53.25976 | 43.47536 | 19986 ft | 283 kts | 122° |
| 2026-04-27 11:00 | 53.24201 | 43.53386 | 20007 ft | 282 kts | 122° |
| 2026-04-27 11:00 | 53.23313 | 43.56307 | 20026 ft | 282 kts | 123° |
| 2026-04-27 11:00 | 53.22423 | 43.59223 | 20035 ft | 282 kts | 123° |
| 2026-04-27 11:00 | 53.21533 | 43.62145 | 20040 ft | 282 kts | 122° |
| 2026-04-27 11:01 | 53.20645 | 43.65054 | 20049 ft | 282 kts | 122° |
| 2026-04-27 11:01 | 53.19755 | 43.67968 | 20054 ft | 282 kts | 122° |
| 2026-04-27 11:01 | 53.18864 | 43.70878 | 20060 ft | 282 kts | 123° |
| 2026-04-27 11:01 | 53.17970 | 43.73793 | 20069 ft | 282 kts | 122° |
| 2026-04-27 11:02 | 53.17079 | 43.76701 | 20071 ft | 282 kts | 122° |
| 2026-04-27 11:02 | 53.16186 | 43.79609 | 20072 ft | 282 kts | 123° |
| 2026-04-27 11:02 | 53.15293 | 43.82516 | 20076 ft | 282 kts | 122° |
| 2026-04-27 11:02 | 53.14407 | 43.85390 | 20084 ft | 282 kts | 122° |
| 2026-04-27 11:03 | 53.13511 | 43.88296 | 20087 ft | 282 kts | 123° |
| 2026-04-27 11:03 | 53.12616 | 43.91197 | 20087 ft | 281 kts | 123° |
| 2026-04-27 11:03 | 53.11721 | 43.94095 | 20095 ft | 281 kts | 123° |
| 2026-04-27 11:03 | 53.10827 | 43.96985 | 20105 ft | 281 kts | 123° |
| 2026-04-27 11:04 | 53.09934 | 43.99870 | 20111 ft | 280 kts | 123° |
| 2026-04-27 11:04 | 53.09039 | 44.02754 | 20121 ft | 280 kts | 123° |
| 2026-04-27 11:04 | 53.08145 | 44.05634 | 20136 ft | 280 kts | 123° |
| 2026-04-27 11:04 | 53.07248 | 44.08520 | 20160 ft | 280 kts | 123° |
| 2026-04-27 11:05 | 53.06351 | 44.11402 | 20172 ft | 280 kts | 123° |
| 2026-04-27 11:05 | 53.05453 | 44.14287 | 20184 ft | 280 kts | 123° |
| 2026-04-27 11:05 | 53.04553 | 44.17169 | 20190 ft | 280 kts | 123° |
| 2026-04-27 11:05 | 53.03654 | 44.20047 | 20208 ft | 280 kts | 123° |
| 2026-04-27 11:06 | 53.02768 | 44.22883 | 20218 ft | 280 kts | 123° |
| 2026-04-27 11:06 | 53.01868 | 44.25757 | 20241 ft | 280 kts | 123° |
| 2026-04-27 11:06 | 53.00968 | 44.28628 | 20254 ft | 280 kts | 123° |
| 2026-04-27 11:06 | 53.00066 | 44.31502 | 20266 ft | 280 kts | 123° |
| 2026-04-27 11:07 | 52.99164 | 44.34373 | 20271 ft | 280 kts | 123° |
| 2026-04-27 11:07 | 52.98262 | 44.37241 | 20278 ft | 280 kts | 123° |
| 2026-04-27 11:07 | 52.97360 | 44.40107 | 20288 ft | 280 kts | 124° |
| 2026-04-27 11:07 | 52.96456 | 44.42974 | 20301 ft | 280 kts | 124° |
| 2026-04-27 11:08 | 52.95858 | 44.44869 | 20306 ft | 280 kts | 124° |
| 2026-04-27 11:08 | 52.94953 | 44.47734 | 20309 ft | 280 kts | 124° |
| 2026-04-27 11:08 | 52.94047 | 44.50598 | 20309 ft | 280 kts | 124° |
| 2026-04-27 11:08 | 52.93140 | 44.53464 | 20317 ft | 280 kts | 124° |
| 2026-04-27 11:09 | 52.92234 | 44.56321 | 20323 ft | 280 kts | 124° |
| 2026-04-27 11:09 | 52.91326 | 44.59181 | 20331 ft | 280 kts | 124° |
| 2026-04-27 11:09 | 52.90418 | 44.62040 | 20341 ft | 280 kts | 124° |
| 2026-04-27 11:09 | 52.89510 | 44.64893 | 20348 ft | 280 kts | 124° |
| 2026-04-27 11:10 | 52.88601 | 44.67749 | 20370 ft | 280 kts | 124° |
| 2026-04-27 11:10 | 52.87690 | 44.70602 | 20387 ft | 280 kts | 124° |
| 2026-04-27 11:10 | 52.86781 | 44.73452 | 20396 ft | 280 kts | 124° |
| 2026-04-27 11:10 | 52.85871 | 44.76301 | 20342 ft | 280 kts | 125° |
| 2026-04-27 11:11 | 52.84958 | 44.79151 | 20346 ft | 281 kts | 125° |
| 2026-04-27 11:11 | 52.84054 | 44.81970 | 20355 ft | 281 kts | 125° |
| 2026-04-27 11:11 | 52.83139 | 44.84826 | 20364 ft | 281 kts | 125° |
| 2026-04-27 11:11 | 52.82221 | 44.87685 | 20376 ft | 281 kts | 125° |
| 2026-04-27 11:12 | 52.81302 | 44.90543 | 20386 ft | 281 kts | 125° |
| 2026-04-27 11:12 | 52.80382 | 44.93401 | 20403 ft | 282 kts | 125° |
| 2026-04-27 11:12 | 52.79461 | 44.96258 | 20411 ft | 282 kts | 125° |
| 2026-04-27 11:12 | 52.78540 | 44.99116 | 20421 ft | 282 kts | 125° |
| 2026-04-27 11:13 | 52.77617 | 45.01972 | 20432 ft | 282 kts | 126° |
| 2026-04-27 11:13 | 52.76696 | 45.04821 | 20444 ft | 282 kts | 126° |
| 2026-04-27 11:13 | 52.75771 | 45.07676 | 20451 ft | 282 kts | 126° |
| 2026-04-27 11:13 | 52.74847 | 45.10526 | 20467 ft | 281 kts | 126° |
| 2026-04-27 11:14 | 52.73731 | 45.13096 | 20462 ft | 272 kts | 140° |
| 2026-04-27 11:14 | 52.72337 | 45.15147 | 20464 ft | 265 kts | 152° |
| 2026-04-27 11:14 | 52.70772 | 45.16658 | 20432 ft | 258 kts | 161° |
| 2026-04-27 11:14 | 52.69175 | 45.18000 | 20439 ft | 257 kts | 161° |
| 2026-04-27 11:15 | 52.67589 | 45.19362 | 20450 ft | 257 kts | 160° |
| 2026-04-27 11:15 | 52.66003 | 45.20723 | 20455 ft | 256 kts | 161° |
| 2026-04-27 11:15 | 52.64441 | 45.22055 | 20471 ft | 256 kts | 161° |
| 2026-04-27 11:15 | 52.62860 | 45.23401 | 20483 ft | 256 kts | 161° |
| 2026-04-27 11:16 | 52.61281 | 45.24745 | 20494 ft | 256 kts | 161° |
| 2026-04-27 11:16 | 52.59702 | 45.26090 | 20495 ft | 256 kts | 161° |
| 2026-04-27 11:16 | 52.58119 | 45.27435 | 20497 ft | 256 kts | 161° |
| 2026-04-27 11:16 | 52.56539 | 45.28778 | 20510 ft | 256 kts | 161° |
| 2026-04-27 11:17 | 52.54959 | 45.30119 | 20520 ft | 256 kts | 161° |
| 2026-04-27 11:17 | 52.53378 | 45.31460 | 20527 ft | 256 kts | 161° |
| 2026-04-27 11:17 | 52.51796 | 45.32802 | 20543 ft | 256 kts | 161° |
| 2026-04-27 11:17 | 52.50216 | 45.34140 | 20554 ft | 256 kts | 161° |
| 2026-04-27 11:18 | 52.48636 | 45.35477 | 20563 ft | 256 kts | 161° |
| 2026-04-27 11:18 | 52.47054 | 45.36815 | 20572 ft | 256 kts | 161° |
| 2026-04-27 11:18 | 52.45481 | 45.38146 | 20549 ft | 253 kts | 161° |
| 2026-04-27 11:18 | 52.43921 | 45.39464 | 20555 ft | 252 kts | 162° |
| 2026-04-27 11:19 | 52.42365 | 45.40775 | 20568 ft | 251 kts | 162° |
| 2026-04-27 11:19 | 52.40810 | 45.42084 | 20579 ft | 251 kts | 162° |
| 2026-04-27 11:19 | 52.39257 | 45.43392 | 20583 ft | 251 kts | 162° |
| 2026-04-27 11:19 | 52.37704 | 45.44699 | 20600 ft | 251 kts | 162° |
| 2026-04-27 11:20 | 52.36155 | 45.46005 | 20621 ft | 251 kts | 162° |
| 2026-04-27 11:20 | 52.34603 | 45.47311 | 20633 ft | 251 kts | 162° |
| 2026-04-27 11:20 | 52.33052 | 45.48616 | 20646 ft | 251 kts | 162° |
| 2026-04-27 11:20 | 52.31493 | 45.49924 | 20531 ft | 255 kts | 162° |
| 2026-04-27 11:21 | 52.29893 | 45.51262 | 20228 ft | 261 kts | 161° |
| 2026-04-27 11:21 | 52.28282 | 45.52615 | 19895 ft | 266 kts | 161° |
| 2026-04-27 11:21 | 52.26625 | 45.54008 | 19554 ft | 269 kts | 161° |
| 2026-04-27 11:21 | 52.24953 | 45.55409 | 19203 ft | 271 kts | 161° |
| 2026-04-27 11:22 | 52.23271 | 45.56817 | 18851 ft | 272 kts | 160° |
| 2026-04-27 11:22 | 52.21587 | 45.58227 | 18480 ft | 272 kts | 161° |
| 2026-04-27 11:22 | 52.19905 | 45.59633 | 18132 ft | 271 kts | 160° |
| 2026-04-27 11:22 | 52.18223 | 45.61035 | 17756 ft | 272 kts | 160° |
| 2026-04-27 11:23 | 52.16538 | 45.62439 | 17394 ft | 271 kts | 160° |
| 2026-04-27 11:23 | 52.14860 | 45.63835 | 17036 ft | 271 kts | 160° |
| 2026-04-27 11:23 | 52.13180 | 45.65232 | 16679 ft | 271 kts | 160° |
| 2026-04-27 11:23 | 52.11501 | 45.66628 | 16302 ft | 271 kts | 160° |
| 2026-04-27 11:24 | 52.09827 | 45.68018 | 15970 ft | 270 kts | 160° |
| 2026-04-27 11:24 | 52.08155 | 45.69404 | 15620 ft | 269 kts | 160° |
| 2026-04-27 11:24 | 52.06485 | 45.70789 | 15264 ft | 269 kts | 160° |
| 2026-04-27 11:24 | 52.04823 | 45.72166 | 14912 ft | 268 kts | 160° |
| 2026-04-27 11:25 | 52.03162 | 45.73539 | 14557 ft | 268 kts | 161° |
| 2026-04-27 11:25 | 52.01502 | 45.74910 | 14191 ft | 268 kts | 160° |
| 2026-04-27 11:25 | 51.99886 | 45.76345 | 13822 ft | 271 kts | 153° |
| 2026-04-27 11:25 | 51.98455 | 45.78417 | 13444 ft | 280 kts | 139° |
| 2026-04-27 11:26 | 51.97344 | 45.81051 | 13073 ft | 288 kts | 124° |
| 2026-04-27 11:26 | 51.96562 | 45.84055 | 12702 ft | 289 kts | 117° |
| 2026-04-27 11:26 | 51.95826 | 45.87045 | 12317 ft | 288 kts | 118° |
| 2026-04-27 11:26 | 51.95075 | 45.90032 | 11951 ft | 283 kts | 118° |
| 2026-04-27 11:27 | 51.94325 | 45.92999 | 11577 ft | 284 kts | 118° |
| 2026-04-27 11:27 | 51.93580 | 45.95958 | 11229 ft | 283 kts | 118° |
| 2026-04-27 11:27 | 51.92839 | 45.98909 | 10861 ft | 282 kts | 118° |
| 2026-04-27 11:27 | 51.92098 | 46.01848 | 10494 ft | 280 kts | 118° |
| 2026-04-27 11:28 | 51.91363 | 46.04758 | 10118 ft | 279 kts | 118° |
| 2026-04-27 11:28 | 51.90630 | 46.07652 | 9763 ft | 277 kts | 118° |
| 2026-04-27 11:28 | 51.89910 | 46.10498 | 9380 ft | 275 kts | 118° |
| 2026-04-27 11:28 | 51.89177 | 46.13394 | 9016 ft | 274 kts | 118° |
| 2026-04-27 11:29 | 51.88465 | 46.16196 | 8664 ft | 272 kts | 117° |
| 2026-04-27 11:29 | 51.87739 | 46.19051 | 8304 ft | 270 kts | 118° |
| 2026-04-27 11:29 | 51.87034 | 46.21823 | 7933 ft | 270 kts | 118° |
| 2026-04-27 11:29 | 51.86318 | 46.24632 | 7590 ft | 270 kts | 118° |
| 2026-04-27 11:30 | 51.85602 | 46.27439 | 7245 ft | 269 kts | 118° |
| 2026-04-27 11:30 | 51.84891 | 46.30225 | 6887 ft | 264 kts | 118° |
| 2026-04-27 11:30 | 51.84218 | 46.32875 | 6549 ft | 246 kts | 118° |
| 2026-04-27 11:30 | 51.83593 | 46.35329 | 6232 ft | 226 kts | 118° |
| 2026-04-27 11:31 | 51.83019 | 46.37569 | 5933 ft | 206 kts | 119° |
| 2026-04-27 11:31 | 51.82498 | 46.39601 | 5676 ft | 184 kts | 120° |
| 2026-04-27 11:31 | 51.82039 | 46.41398 | 5462 ft | 162 kts | 121° |
| 2026-04-27 11:31 | 51.81635 | 46.42975 | 5232 ft | 142 kts | 122° |
| 2026-04-27 11:32 | 51.81270 | 46.44385 | 5063 ft | 131 kts | 123° |
| 2026-04-27 11:32 | 51.80924 | 46.45716 | 4891 ft | 127 kts | 124° |
| 2026-04-27 11:32 | 51.80495 | 46.46904 | 4728 ft | 118 kts | 144° |
| 2026-04-27 11:32 | 51.79894 | 46.47719 | 4577 ft | 109 kts | 163° |
| 2026-04-27 11:33 | 51.79222 | 46.48172 | 4434 ft | 100 kts | 179° |
| 2026-04-27 11:33 | 51.78553 | 46.48291 | 4302 ft | 95 kts | 193° |
| 2026-04-27 11:33 | 51.77919 | 46.48130 | 4176 ft | 90 kts | 206° |
| 2026-04-27 11:33 | 51.77344 | 46.47761 | 4059 ft | 89 kts | 212° |
| 2026-04-27 11:34 | 51.76773 | 46.47385 | 3949 ft | 87 kts | 212° |
| 2026-04-27 11:34 | 51.76202 | 46.47005 | 3832 ft | 91 kts | 211° |
| 2026-04-27 11:34 | 51.75610 | 46.46613 | 3712 ft | 93 kts | 211° |
| 2026-04-27 11:34 | 51.75019 | 46.46223 | 3584 ft | 91 kts | 211° |
| 2026-04-27 11:35 | 51.74440 | 46.45840 | 3459 ft | 89 kts | 211° |
| 2026-04-27 11:35 | 51.73867 | 46.45461 | 3341 ft | 89 kts | 211° |
| 2026-04-27 11:35 | 51.73304 | 46.45089 | 3224 ft | 88 kts | 211° |
| 2026-04-27 11:35 | 51.72737 | 46.44714 | 3108 ft | 87 kts | 211° |
| 2026-04-27 11:36 | 51.72177 | 46.44344 | 2987 ft | 87 kts | 212° |
| 2026-04-27 11:36 | 51.71657 | 46.43897 | 2874 ft | 83 kts | 223° |
| 2026-04-27 11:36 | 51.71236 | 46.43261 | 2765 ft | 84 kts | 233° |
| 2026-04-27 11:36 | 51.70920 | 46.42465 | 2651 ft | 85 kts | 243° |
| 2026-04-27 11:37 | 51.70735 | 46.41556 | 2543 ft | 87 kts | 254° |
| 2026-04-27 11:37 | 51.70700 | 46.40629 | 2422 ft | 80 kts | 265° |
| 2026-04-27 11:37 | 51.70725 | 46.39726 | 2352 ft | 82 kts | 264° |
| 2026-04-27 11:37 | 51.70749 | 46.38794 | 2253 ft | 80 kts | 265° |
| 2026-04-27 11:38 | 51.70772 | 46.37966 | 2139 ft | 69 kts | 264° |
| 2026-04-27 11:38 | 51.70790 | 46.37222 | 2051 ft | 66 kts | 263° |
| 2026-04-27 11:38 | 51.70807 | 46.36473 | 1974 ft | 68 kts | 263° |
| 2026-04-27 11:38 | 51.70826 | 46.35691 | 1894 ft | 72 kts | 264° |
| 2026-04-27 11:39 | 51.70845 | 46.34893 | 1797 ft | 69 kts | 265° |
| 2026-04-27 11:39 | 51.70864 | 46.34149 | 1701 ft | 65 kts | 264° |
| 2026-04-27 11:39 | 51.70881 | 46.33411 | 1621 ft | 67 kts | 265° |
| 2026-04-27 11:39 | 51.70900 | 46.32646 | 1533 ft | 69 kts | 264° |
| 2026-04-27 11:40 | 51.70920 | 46.31873 | 1441 ft | 70 kts | 264° |
| 2026-04-27 11:40 | 51.70939 | 46.31099 | 1348 ft | 68 kts | 264° |
| 2026-04-27 11:40 | 51.70954 | 46.30344 | 1242 ft | 70 kts | 265° |
| 2026-04-27 11:40 | 51.70955 | 46.29549 | 1140 ft | 72 kts | 264° |
| 2026-04-27 11:41 | 51.70941 | 46.28746 | 1054 ft | 70 kts | 264° |
| 2026-04-27 11:41 | 51.70967 | 46.27976 | 970 ft | 68 kts | 270° |
| 2026-04-27 11:41 | 51.71000 | 46.27192 | 883 ft | 72 kts | 268° |
| 2026-04-27 11:41 | 51.71030 | 46.26353 | 796 ft | 77 kts | 269° |
| 2026-04-27 11:42 | 51.71058 | 46.25519 | 696 ft | 72 kts | 269° |
| 2026-04-27 11:42 | 51.71080 | 46.24712 | 599 ft | 74 kts | 268° |
| 2026-04-27 11:42 | 51.71102 | 46.23826 | 503 ft | 81 kts | 266° |
| 2026-04-27 11:42 | 51.71131 | 46.22963 | 384 ft | 78 kts | 268° |
| 2026-04-27 11:43 | 51.71170 | 46.21980 | 400 ft | 88 kts | 269° |
| 2026-04-27 11:43 | 51.71192 | 46.21012 | 359 ft | 85 kts | 267° |
| 2026-04-27 11:43 | 51.71204 | 46.20028 | 301 ft | 91 kts | 267° |
| 2026-04-27 11:43 | 51.71230 | 46.19024 | 177 ft | 87 kts | 268° |
| 2026-04-27 11:44 | 51.71244 | 46.18086 | 112 ft | 79 kts | 269° |
| 2026-04-27 11:44 | 51.71270 | 46.17446 | 103 ft | 24 kts | 312° |
| 2026-04-27 11:44 | 51.71514 | 46.17411 | 101 ft | 47 kts | 0° |
| 2026-04-27 11:44 | 51.71653 | 46.17373 | 100 ft | 0 kts | 273° |